Terminal Aerodrome Forecast
Issued by NWS Jackson, KY

Home | Current Version | Previous Version | Text Only | Print | Product List | Glossary On
Versions: 1 2 3 4 5 6 7 8 9 10 11 12 13 14 15 16 17 18 19 20 21 22 23 24 25 26
200
FTUS43 KJKL 092339
TAFLOZ
TAF
KLOZ 092339Z 1000/1024 28009KT 6SM -SHSN BR SCT015 OVC025
     FM100500 28009KT P6SM -SHSN OVC015
     FM101100 28010KT P6SM VCSH OVC025
     FM102200 28010KT P6SM BKN035=

USA.gov is the U.S. government's official web portal to all federal, state and local government web resources and services.